Time;durP1;ratioP1;P1;durP2;ratioP2;P2;SDS_P1;SDS_P2;PMS_P1;PMS_P2;Temp;Humidity;BMP_temperature;BMP_pressure;BME280_temperature;BME280_humidity;BME280_pressure;Samples;Min_cycle;Max_cycle;Signal;HPM_P1;HPM_P2
2022/03/24 00:00:07;;;;;;;18.65;7.85;;;;;;;11.05;42.11;101475.03;5036036;28;20045;-76
2022/03/24 00:02:32;;;;;;;14.85;6.70;;;;;;;11.06;42.38;101476.72;5036399;28;20033;-76
2022/03/24 00:04:58;;;;;;;17.37;7.23;;;;;;;11.03;42.40;101479.78;5035768;28;20391;-76
2022/03/24 00:07:23;;;;;;;16.00;7.07;;;;;;;11.00;42.21;101474.75;5035461;28;20616;-76
2022/03/24 00:09:49;;;;;;;17.15;7.90;;;;;;;10.98;42.25;101471.38;5035693;28;20105;-76
2022/03/24 00:12:16;;;;;;;17.70;7.70;;;;;;;10.98;42.10;101468.69;5034930;28;20047;-77
2022/03/24 00:14:42;;;;;;;19.65;8.35;;;;;;;10.93;42.03;101471.06;5035864;28;20039;-77
2022/03/24 00:17:07;;;;;;;19.15;7.95;;;;;;;10.86;42.67;101470.16;5035507;28;20102;-77
2022/03/24 00:19:33;;;;;;;22.80;9.13;;;;;;;10.77;43.21;101464.81;5034679;28;20056;-77
2022/03/24 00:21:58;;;;;;;19.67;7.67;;;;;;;10.71;44.08;101465.56;5035535;28;20025;-77
2022/03/24 00:24:23;;;;;;;18.07;8.27;;;;;;;10.60;45.29;101471.34;5035541;28;20280;-77
2022/03/24 00:26:49;;;;;;;17.25;7.10;;;;;;;10.42;46.82;101471.63;5034700;28;20071;-76
2022/03/24 00:29:14;;;;;;;19.00;8.07;;;;;;;10.34;45.36;101462.78;5035834;28;20511;-76
2022/03/24 00:31:40;;;;;;;20.20;7.97;;;;;;;10.30;45.35;101461.44;5035595;28;20025;-77
2022/03/24 00:34:05;;;;;;;19.65;7.78;;;;;;;10.28;45.38;101461.63;5035810;28;20275;-78
2022/03/24 00:36:31;;;;;;;18.47;8.37;;;;;;;10.26;45.01;101460.13;5035295;28;20130;-76
2022/03/24 00:38:56;;;;;;;17.90;6.97;;;;;;;10.25;46.07;101464.66;5035483;28;20032;-76
2022/03/24 00:41:23;;;;;;;20.00;8.63;;;;;;;10.25;45.37;101466.53;5035381;28;20033;-76
2022/03/24 00:43:49;;;;;;;18.70;8.25;;;;;;;10.21;45.41;101466.03;5034890;28;20056;-76
2022/03/24 00:46:22;;;;;;;15.77;7.22;;;;;;;10.14;45.78;101456.97;5035012;28;20472;-76
2022/03/24 00:48:51;;;;;;;17.83;7.60;;;;;;;10.10;45.64;101459.16;5035509;28;20049;-77
2022/03/24 00:51:18;;;;;;;18.83;8.52;;;;;;;10.05;46.55;101450.78;5039116;28;20033;-77
2022/03/24 00:53:44;;;;;;;18.65;7.60;;;;;;;10.00;46.90;101453.19;5039955;28;20025;-77
2022/03/24 00:56:10;;;;;;;20.00;7.28;;;;;;;9.95;47.33;101452.84;5040153;28;20522;-77
2022/03/24 00:58:35;;;;;;;;;;;;;;;9.93;47.01;101460.25;5036410;28;20128;-77
2022/03/24 01:01:03;;;;;;;19.75;7.65;;;;;;;9.85;47.86;101454.94;5035050;28;19952;-77
2022/03/24 01:03:28;;;;;;;20.17;7.90;;;;;;;9.78;48.47;101453.09;5034744;28;20041;-77
2022/03/24 01:05:53;;;;;;;18.50;7.67;;;;;;;9.73;48.63;101454.47;5034901;28;20026;-76
2022/03/24 01:08:21;;;;;;;16.97;7.73;;;;;;;9.67;48.80;101451.66;5033818;28;20045;-77
2022/03/24 01:10:48;;;;;;;20.75;8.15;;;;;;;9.65;48.63;101449.13;5035123;28;20025;-77
2022/03/24 01:13:15;;;;;;;16.92;7.88;;;;;;;9.65;48.52;101448.28;5034558;28;20031;-76
2022/03/24 01:15:44;;;;;;;21.08;8.48;;;;;;;9.59;49.45;101452.50;5034689;28;20377;-77
2022/03/24 01:18:10;;;;;;;17.38;8.10;;;;;;;9.55;50.14;101447.63;5034569;28;20033;-77
2022/03/24 01:20:35;;;;;;;17.98;7.20;;;;;;;9.51;50.11;101448.97;5034848;28;20483;-77
2022/03/24 01:23:01;;;;;;;21.48;8.35;;;;;;;9.43;50.20;101446.34;5033174;28;20357;-76
2022/03/24 01:25:29;;;;;;;18.47;7.63;;;;;;;9.37;50.03;101437.09;5034435;28;20030;-77
2022/03/24 01:27:55;;;;;;;22.02;8.05;;;;;;;9.34;50.26;101440.13;5034446;28;20913;-77
2022/03/24 01:30:21;;;;;;;17.63;6.88;;;;;;;9.33;49.78;101438.44;5034109;28;20022;-76
2022/03/24 01:32:47;;;;;;;21.88;7.95;;;;;;;9.35;50.21;101442.63;5034029;28;20559;-78
2022/03/24 01:35:13;;;;;;;20.33;7.63;;;;;;;9.34;50.53;101440.97;5034375;28;20069;-76
2022/03/24 01:37:40;;;;;;;15.00;7.00;;;;;;;9.25;50.76;101435.78;5034019;28;20033;-77
2022/03/24 01:40:08;;;;;;;21.30;8.45;;;;;;;9.22;50.39;101431.59;5034235;28;20493;-76
2022/03/24 01:42:34;;;;;;;20.83;8.07;;;;;;;9.21;49.17;101439.81;5034370;28;20044;-76
2022/03/24 01:45:01;;;;;;;20.70;8.15;;;;;;;9.20;49.71;101430.91;5034178;28;20029;-76
2022/03/24 01:47:26;;;;;;;19.90;7.90;;;;;;;9.23;49.11;101427.88;5034009;28;20066;-76
2022/03/24 01:49:53;;;;;;;21.03;8.00;;;;;;;9.23;48.71;101435.13;5034091;28;20041;-80
2022/03/24 01:52:19;;;;;;;23.13;7.28;;;;;;;9.25;49.22;101431.25;5034047;28;20582;-80
2022/03/24 01:54:51;;;;;;;17.87;7.97;;;;;;;9.25;48.96;101423.19;5033831;28;20123;-76
2022/03/24 01:57:17;;;;;;;17.98;7.43;;;;;;;9.24;49.97;101429.56;5033774;28;20745;-76
2022/03/24 01:59:43;;;;;;;;;;;;;;;9.22;49.43;101433.44;5034282;28;20034;-77
2022/03/24 02:02:09;;;;;;;16.67;7.15;;;;;;;9.29;49.80;101424.53;5034026;28;19920;-78
2022/03/24 02:04:35;;;;;;;21.50;8.75;;;;;;;9.23;49.72;101433.25;5033754;28;20033;-77
2022/03/24 02:07:02;;;;;;;19.35;7.57;;;;;;;9.24;50.42;101432.25;5033355;28;20057;-79
2022/03/24 02:09:27;;;;;;;19.75;7.25;;;;;;;9.20;49.92;101427.38;5032184;28;20041;-77
2022/03/24 02:11:53;;;;;;;19.88;8.68;;;;;;;9.16;50.54;101426.88;5033465;28;20052;-77
2022/03/24 02:14:19;;;;;;;17.25;7.93;;;;;;;9.09;49.42;101425.91;5033249;28;20045;-77
2022/03/24 02:16:47;;;;;;;17.90;6.78;;;;;;;9.06;50.11;101426.25;5033654;28;20030;-76
2022/03/24 02:19:21;;;;;;;15.65;6.70;;;;;;;8.99;49.33;101419.84;5015901;28;20029;-76
2022/03/24 02:21:49;;;;;;;19.33;8.20;;;;;;;8.97;49.73;101419.19;5033333;28;20079;-76
2022/03/24 02:24:16;;;;;;;20.98;8.30;;;;;;;8.96;49.20;101417.50;5033351;28;20033;-76
2022/03/24 02:26:44;;;;;;;22.13;8.73;;;;;;;8.95;47.97;101422.06;5032300;28;20033;-76
2022/03/24 02:29:11;;;;;;;18.83;7.82;;;;;;;8.93;49.27;101421.41;5033276;28;20515;-77
2022/03/24 02:31:38;;;;;;;20.60;8.27;;;;;;;8.94;49.39;101416.84;5033428;28;20072;-76
2022/03/24 02:36:53;;;;;;;21.83;8.13;;;;;;;8.92;49.06;101408.97;5033087;28;20087;-76
2022/03/24 02:39:18;;;;;;;;;;;;;;;8.89;49.48;101408.44;5033802;28;20074;-76
2022/03/24 02:41:49;;;;;;;20.20;7.72;;;;;;;8.87;49.37;101411.31;5033317;28;20318;-76
2022/03/24 02:44:17;;;;;;;20.05;8.48;;;;;;;8.83;49.69;101415.34;5033260;28;20030;-76
2022/03/24 02:46:44;;;;;;;20.10;7.72;;;;;;;8.78;50.53;101406.94;5033039;28;20021;-77
2022/03/24 02:49:10;;;;;;;25.00;8.90;;;;;;;8.74;50.96;101413.69;5032994;28;20029;-77
2022/03/24 02:51:36;;;;;;;19.27;9.15;;;;;;;8.69;50.99;101413.34;5031902;28;20083;-77
2022/03/24 02:54:02;;;;;;;;;;;;;;;8.67;51.38;101418.03;5033788;28;20034;-77
2022/03/24 02:56:27;;;;;;;22.75;7.93;;;;;;;8.63;50.67;101416.69;5033422;28;19909;-77
2022/03/24 02:58:53;;;;;;;21.20;8.03;;;;;;;8.61;51.15;101411.47;5033601;28;20026;-78
2022/03/24 03:01:18;;;;;;;20.10;8.53;;;;;;;8.56;51.98;101418.38;5033151;28;20021;-76
2022/03/24 03:03:44;;;;;;;19.53;9.03;;;;;;;8.50;52.66;101417.19;5031776;28;20061;-77
2022/03/24 03:06:10;;;;;;;19.45;7.82;;;;;;;8.47;52.39;101414.84;5032695;28;20030;-76
2022/03/24 03:08:35;;;;;;;21.63;8.15;;;;;;;8.47;52.26;101414.00;5031939;28;20124;-76
2022/03/24 03:11:00;;;;;;;15.73;6.70;;;;;;;8.50;52.36;101417.19;5033399;28;20455;-76
2022/03/24 03:13:27;;;;;;;18.43;7.10;;;;;;;8.46;52.38;101423.06;5032793;28;20037;-76
2022/03/24 03:15:52;;;;;;;19.35;8.18;;;;;;;8.41;52.72;101420.06;5032894;28;20079;-77
2022/03/24 03:18:18;;;;;;;19.07;7.73;;;;;;;8.33;53.66;101418.19;5032688;28;20064;-75
2022/03/24 03:20:45;;;;;;;16.80;7.47;;;;;;;8.15;54.15;101420.97;5033025;28;20017;-77
2022/03/24 03:23:10;;;;;;;18.77;7.18;;;;;;;8.08;54.75;101424.47;5032741;28;20528;-78
2022/03/24 03:25:36;;;;;;;17.13;6.85;;;;;;;7.99;55.22;101424.47;5033024;28;20112;-78
2022/03/24 03:28:01;;;;;;;16.70;8.00;;;;;;;7.89;55.04;101423.75;5032963;28;20387;-76
2022/03/24 03:30:26;;;;;;;18.67;8.47;;;;;;;7.83;55.75;101427.09;5032702;28;20425;-77
2022/03/24 03:32:51;;;;;;;21.40;8.37;;;;;;;7.71;56.19;101422.19;5032566;28;20034;-77
2022/03/24 03:35:18;;;;;;;18.73;7.80;;;;;;;7.65;55.64;101426.38;5032593;28;20025;-76
2022/03/24 03:37:44;;;;;;;18.42;8.80;;;;;;;7.56;55.75;101430.00;5032847;28;20037;-76
2022/03/24 03:40:10;;;;;;;22.70;8.80;;;;;;;7.49;55.66;101427.13;5032500;28;20022;-76
2022/03/24 03:42:35;;;;;;;;;;;;;;;7.40;54.46;101424.56;5032991;28;20095;-76
2022/03/24 03:45:01;;;;;;;23.48;8.82;;;;;;;7.34;53.97;101427.91;5032676;28;20351;-76
2022/03/24 03:47:26;;;;;;;25.17;9.43;;;;;;;7.34;53.38;101420.69;5035878;28;20444;-76
2022/03/24 03:49:51;;;;;;;22.63;9.00;;;;;;;7.39;52.91;101420.19;5036748;28;20527;-76
2022/03/24 03:52:16;;;;;;;20.87;8.90;;;;;;;7.33;53.15;101424.38;5036307;28;20079;-76
2022/03/24 03:54:43;;;;;;;22.87;8.80;;;;;;;7.32;53.55;101417.34;5035932;28;20033;-77
2022/03/24 03:57:08;;;;;;;;;;;;;;;7.35;53.59;101425.03;5036619;28;20036;-77
2022/03/24 03:59:33;;;;;;;19.00;8.27;;;;;;;7.32;52.89;101428.91;5036188;28;19909;-77
2022/03/24 04:01:59;;;;;;;19.87;8.00;;;;;;;7.27;53.60;101420.47;5036254;28;20255;-76
2022/03/24 04:04:24;;;;;;;22.20;8.60;;;;;;;7.29;54.38;101428.38;5035988;28;20018;-77
2022/03/24 04:06:50;;;;;;;24.30;7.80;;;;;;;7.26;54.49;101431.38;5035888;28;20534;-76
2022/03/24 04:09:15;;;;;;;19.43;8.60;;;;;;;7.26;54.77;101429.53;5036094;28;20252;-77
2022/03/24 04:11:40;;;;;;;21.07;8.13;;;;;;;7.27;54.61;101430.38;5035567;28;20041;-77
2022/03/24 04:14:07;;;;;;;21.33;8.18;;;;;;;7.28;55.22;101427.53;5035844;28;20040;-77
2022/03/24 04:16:32;;;;;;;23.50;8.65;;;;;;;7.27;55.86;101431.19;5036128;28;20064;-77
2022/03/24 04:18:57;;;;;;;19.57;8.13;;;;;;;7.26;55.81;101426.00;5035909;28;20080;-76
2022/03/24 04:21:23;;;;;;;23.27;8.60;;;;;;;7.19;56.31;101427.63;5036086;28;20033;-76
2022/03/24 04:23:49;;;;;;;20.43;8.47;;;;;;;7.15;57.10;101435.16;5035299;28;20065;-76
2022/03/24 04:26:14;;;;;;;22.35;8.27;;;;;;;7.16;55.98;101428.81;5035640;28;20057;-76
2022/03/24 04:28:43;;;;;;;20.13;7.80;;;;;;;7.14;56.41;101429.97;5035394;28;20125;-77
2022/03/24 04:31:11;;;;;;;21.55;8.23;;;;;;;7.14;56.59;101433.47;5035324;28;20335;-76
2022/03/24 04:33:37;;;;;;;19.98;7.70;;;;;;;7.12;56.38;101431.94;5035484;28;20025;-75
2022/03/24 04:36:07;;;;;;;20.70;9.27;;;;;;;7.03;56.88;101433.72;5035449;28;20040;-76
2022/03/24 04:38:33;;;;;;;20.70;8.35;;;;;;;6.95;57.17;101431.00;5035117;28;20431;-76
2022/03/24 04:40:58;;;;;;;19.10;7.63;;;;;;;7.39;55.74;101433.59;5034984;28;20029;-76
2022/03/24 04:43:25;;;;;;;19.17;8.07;;;;;;;7.45;56.04;101431.13;5035440;28;20026;-76
2022/03/24 04:45:52;;;;;;;19.85;7.97;;;;;;;7.29;56.13;101431.88;5035305;28;20029;-76
2022/03/24 04:48:18;;;;;;;21.70;8.60;;;;;;;7.29;56.23;101436.41;5035315;28;20060;-77
2022/03/24 04:50:44;;;;;;;19.67;8.15;;;;;;;7.29;55.38;101433.72;5034014;28;20022;-77
2022/03/24 04:53:17;;;;;;;22.75;9.73;;;;;;;7.24;55.42;101436.88;5034848;28;20034;-77
2022/03/24 04:55:44;;;;;;;20.85;8.57;;;;;;;7.23;54.56;101429.84;5035018;28;20112;-78
2022/03/24 04:58:10;;;;;;;23.40;8.85;;;;;;;7.27;55.02;101436.56;5034631;28;20029;-77
2022/03/24 05:00:35;;;;;;;22.63;9.55;;;;;;;7.43;54.69;101434.97;5035259;28;20043;-77
2022/03/24 05:03:01;;;;;;;22.17;8.77;;;;;;;7.48;54.05;101440.69;5034843;28;20048;-76
2022/03/24 05:05:26;;;;;;;21.80;8.83;;;;;;;7.44;53.62;101428.59;5034262;28;20029;-77
2022/03/24 05:07:51;;;;;;;24.63;9.33;;;;;;;7.42;53.45;101435.97;5034630;28;20340;-77
2022/03/24 05:10:17;;;;;;;21.10;8.70;;;;;;;7.42;53.04;101435.97;5034844;28;20030;-77
2022/03/24 05:12:42;;;;;;;21.42;9.30;;;;;;;7.40;52.97;101435.28;5034865;28;20264;-80
2022/03/24 05:15:10;;;;;;;19.40;7.82;;;;;;;7.38;53.37;101432.75;5034941;28;20041;-77
2022/03/24 05:17:36;;;;;;;21.42;8.20;;;;;;;7.33;53.85;101437.78;5034799;28;20128;-77
2022/03/24 05:20:02;;;;;;;21.15;7.82;;;;;;;7.28;53.16;101432.88;5034241;28;20057;-77
2022/03/24 05:22:27;;;;;;;19.73;8.82;;;;;;;7.26;53.98;101431.38;5034451;28;20041;-77
2022/03/24 05:24:52;;;;;;;19.37;7.57;;;;;;;7.18;53.69;101431.28;5034510;28;20029;-76
2022/03/24 05:27:18;;;;;;;24.33;9.83;;;;;;;7.06;55.19;101438.78;5033129;28;20448;-76
2022/03/24 05:29:43;;;;;;;21.83;8.93;;;;;;;6.91;56.55;101441.19;5034662;28;20379;-78
2022/03/24 05:32:09;;;;;;;20.00;8.33;;;;;;;6.84;56.64;101445.47;5034502;28;20427;-78
2022/03/24 05:34:34;;;;;;;21.20;8.43;;;;;;;6.81;56.01;101432.38;5034376;28;20037;-76
2022/03/24 05:36:59;;;;;;;20.73;8.07;;;;;;;6.78;56.21;101434.56;5034002;28;20036;-77
2022/03/24 05:39:25;;;;;;;24.25;9.30;;;;;;;6.79;56.60;101436.25;5033998;28;20128;-76
2022/03/24 05:41:50;;;;;;;22.30;9.32;;;;;;;6.80;57.02;101429.88;5034542;28;20026;-76
2022/03/24 05:44:16;;;;;;;21.35;8.02;;;;;;;6.93;56.73;101438.34;5033952;28;20060;-77
2022/03/24 05:46:44;;;;;;;18.93;9.10;;;;;;;7.00;56.67;101434.03;5034074;28;20067;-76
2022/03/24 05:49:14;;;;;;;20.88;9.35;;;;;;;7.05;56.61;101433.56;5033804;28;20053;-76
2022/03/24 05:51:42;;;;;;;24.23;8.27;;;;;;;7.10;56.68;101429.44;5033991;28;20029;-77
2022/03/24 05:54:08;;;;;;;21.40;8.43;;;;;;;7.05;56.97;101438.94;5033848;28;20033;-76
2022/03/24 05:56:34;;;;;;;;;;;;;;;7.01;57.60;101438.41;5034581;28;20034;-77
2022/03/24 05:58:59;;;;;;;20.58;7.88;;;;;;;7.07;57.36;101434.25;5033898;28;19954;-77
2022/03/24 06:01:24;;;;;;;22.33;7.83;;;;;;;6.91;57.99;101443.03;5033949;28;20107;-77
2022/03/24 06:03:51;;;;;;;26.10;8.83;;;;;;;6.81;57.92;101448.47;5033914;28;20160;-77
2022/03/24 06:06:17;;;;;;;;;;;;;;;6.71;57.93;101446.88;5032786;28;20275;-77
2022/03/24 06:08:42;;;;;;;22.00;9.02;;;;;;;6.68;58.01;101445.34;5033384;28;19913;-77
2022/03/24 06:11:11;;;;;;;23.20;9.35;;;;;;;6.66;58.22;101452.69;5033419;28;20029;-76
2022/03/24 06:13:36;;;;;;;23.70;8.90;;;;;;;6.52;59.54;101451.41;5032062;28;20064;-79
2022/03/24 06:16:02;;;;;;;24.95;9.48;;;;;;;6.38;59.82;101451.09;5033381;28;20056;-76
2022/03/24 06:18:28;;;;;;;20.27;8.88;;;;;;;6.14;59.26;101454.34;5033333;28;20084;-76
2022/03/24 06:20:54;;;;;;;20.08;8.90;;;;;;;6.11;60.89;101454.66;5033451;28;20033;-76
2022/03/24 06:23:19;;;;;;;21.17;9.50;;;;;;;5.90;62.16;101455.78;5033085;28;20034;-76
2022/03/24 06:25:44;;;;;;;19.47;8.53;;;;;;;5.99;62.66;101459.38;5032822;28;20037;-76
2022/03/24 06:28:11;;;;;;;18.63;7.90;;;;;;;5.98;62.66;101463.06;5031934;28;20074;-77
2022/03/24 06:30:37;;;;;;;21.73;9.80;;;;;;;5.86;61.96;101457.03;5031984;28;20109;-77
2022/03/24 06:33:02;;;;;;;23.10;9.93;;;;;;;5.81;61.72;101463.81;5033203;28;20387;-78
2022/03/24 06:35:28;;;;;;;24.90;9.45;;;;;;;5.81;62.40;101467.34;5032986;28;20116;-77
2022/03/24 06:37:53;;;;;;;24.77;8.70;;;;;;;5.99;62.06;101464.75;5033265;28;20460;-77
2022/03/24 06:40:19;;;;;;;25.05;8.77;;;;;;;6.04;61.79;101469.66;5034005;28;20643;-77
2022/03/24 06:42:44;;;;;;;18.93;8.50;;;;;;;6.14;61.83;101467.75;5035684;28;20076;-78
2022/03/24 06:45:12;;;;;;;22.38;8.02;;;;;;;6.12;61.87;101467.03;5034013;28;20033;-77
2022/03/24 06:47:39;;;;;;;22.30;8.73;;;;;;;6.16;62.28;101463.09;5034132;28;20116;-77
2022/03/24 06:50:05;;;;;;;22.60;10.48;;;;;;;6.24;62.12;101472.06;5034712;28;20044;-77
2022/03/24 06:52:31;;;;;;;24.70;10.00;;;;;;;6.31;61.53;101466.91;5035039;28;20033;-78
2022/03/24 06:54:56;;;;;;;24.95;10.15;;;;;;;6.39;60.87;101472.38;5033196;28;20033;-78
2022/03/24 06:57:22;;;;;;;23.90;8.80;;;;;;;6.52;61.87;101462.13;5032862;28;20029;-78
2022/03/24 06:59:47;;;;;;;23.50;8.90;;;;;;;6.71;60.94;101471.81;5032824;28;20471;-77
2022/03/24 07:02:13;;;;;;;22.03;9.30;;;;;;;6.75;60.50;101473.19;5031550;28;20080;-77
2022/03/24 07:04:38;;;;;;;25.52;9.32;;;;;;;6.89;60.13;101469.97;5032565;28;20284;-77
2022/03/24 07:07:04;;;;;;;19.50;8.73;;;;;;;6.96;60.16;101472.88;5032545;28;20053;-77
2022/03/24 07:09:30;;;;;;;25.48;9.65;;;;;;;7.11;59.51;101465.94;5032904;28;20025;-76
2022/03/24 07:11:55;;;;;;;26.73;10.43;;;;;;;7.24;59.07;101478.94;5033257;28;20063;-76
2022/03/24 07:14:21;;;;;;;23.30;9.73;;;;;;;7.48;59.66;101472.88;5033034;28;20471;-76
2022/03/24 07:16:47;;;;;;;22.23;9.43;;;;;;;7.70;58.37;101483.06;5032615;28;20060;-76
2022/03/24 07:19:12;;;;;;;22.93;10.57;;;;;;;7.83;57.72;101475.41;5032573;28;20033;-75
2022/03/24 07:21:37;;;;;;;21.40;9.13;;;;;;;8.09;57.49;101469.94;5036187;28;20256;-75
2022/03/24 07:24:03;;;;;;;19.75;8.70;;;;;;;8.16;57.05;101472.81;5034915;28;20442;-75
2022/03/24 07:26:28;;;;;;;24.15;9.90;;;;;;;8.43;56.71;101480.63;5034795;28;20081;-76
2022/03/24 07:28:54;;;;;;;22.40;8.13;;;;;;;8.60;56.56;101479.66;5036581;28;20091;-78
2022/03/24 07:31:20;;;;;;;24.80;9.83;;;;;;;8.84;54.24;101481.53;5036515;28;20021;-79
2022/03/24 07:33:48;;;;;;;25.15;11.07;;;;;;;8.88;54.81;101484.72;5035965;28;20487;-76
2022/03/24 07:36:15;;;;;;;20.48;8.45;;;;;;;9.16;53.89;101483.34;5036216;28;20430;-77
2022/03/24 07:38:41;;;;;;;21.70;9.60;;;;;;;9.42;52.90;101487.69;5018340;28;20088;-77
2022/03/24 07:41:06;;;;;;;25.70;10.68;;;;;;;9.41;51.73;101489.53;5035959;28;20087;-75
2022/03/24 07:43:32;;;;;;;28.58;11.05;;;;;;;9.71;51.72;101487.94;5035713;28;20468;-75
2022/03/24 07:45:57;;;;;;;23.17;9.10;;;;;;;10.03;51.11;101490.50;5036224;28;20029;-76
2022/03/24 07:48:26;;;;;;;30.77;11.60;;;;;;;10.14;49.65;101483.06;5035915;28;20033;-77
2022/03/24 07:50:54;;;;;;;26.88;10.88;;;;;;;10.29;48.63;101490.25;5036474;28;20025;-78
2022/03/24 07:53:32;;;;;;;28.05;10.75;;;;;;;10.46;47.63;101490.13;5035270;28;20025;-78
2022/03/24 07:55:58;;;;;;;28.70;10.65;;;;;;;10.48;47.08;101488.94;5036027;28;20026;-78
2022/03/24 07:58:24;;;;;;;27.90;11.13;;;;;;;10.62;46.08;101490.03;5035979;28;20453;-78
2022/03/24 08:00:49;;;;;;;27.40;11.40;;;;;;;10.64;45.64;101488.84;5036256;28;20029;-78
2022/03/24 08:03:21;;;;;;;29.20;11.38;;;;;;;10.76;46.26;101487.38;5035348;28;20611;-76
2022/03/24 08:05:48;;;;;;;30.00;10.75;;;;;;;10.91;46.04;101494.72;5017863;28;20056;-77
2022/03/24 08:08:15;;;;;;;26.10;10.05;;;;;;;11.01;44.81;101498.00;5035813;28;20046;-76
2022/03/24 08:10:45;;;;;;;25.85;10.70;;;;;;;11.21;44.11;101496.47;5018160;28;20038;-76
2022/03/24 08:13:15;;;;;;;28.55;11.85;;;;;;;11.35;44.26;101498.34;5034897;28;20480;-76
2022/03/24 08:15:41;;;;;;;23.70;10.55;;;;;;;11.48;43.72;101503.09;5035061;28;20037;-76
2022/03/24 08:18:08;;;;;;;29.80;11.00;;;;;;;11.52;42.39;101499.00;5035227;28;20048;-76
2022/03/24 08:20:36;;;;;;;28.58;11.48;;;;;;;11.59;42.96;101497.25;5035086;28;20037;-76
2022/03/24 08:23:02;;;;;;;44.05;12.32;;;;;;;11.59;42.96;101499.97;5035402;28;20026;-76
2022/03/24 08:25:28;;;;;;;29.27;11.60;;;;;;;11.76;42.21;101495.25;5033751;28;20026;-76
2022/03/24 08:27:53;;;;;;;31.02;11.13;;;;;;;11.76;41.88;101506.06;5033978;28;20079;-76
2022/03/24 08:30:18;;;;;;;24.47;10.20;;;;;;;11.70;42.53;101501.34;5035131;28;20160;-78
2022/03/24 08:32:44;;;;;;;31.43;11.80;;;;;;;11.55;43.04;101508.59;5034930;28;20029;-76
2022/03/24 08:35:10;;;;;;;28.67;11.65;;;;;;;11.82;42.85;101500.72;5035183;28;20338;-77
2022/03/24 08:37:36;;;;;;;25.63;10.88;;;;;;;11.82;42.32;101500.72;5035077;28;20030;-76
2022/03/24 08:40:02;;;;;;;24.45;11.18;;;;;;;11.94;42.24;101511.06;5034082;28;20033;-77
2022/03/24 08:42:28;;;;;;;23.20;10.85;;;;;;;12.14;40.99;101501.38;5035305;28;20037;-77
2022/03/24 08:44:53;;;;;;;24.73;10.50;;;;;;;12.22;40.44;101508.50;5035485;28;20029;-77
2022/03/24 08:47:19;;;;;;;28.77;11.93;;;;;;;12.50;40.75;101502.22;5035041;28;20259;-78
2022/03/24 08:49:45;;;;;;;27.05;11.45;;;;;;;12.48;40.02;101508.84;5035165;28;20037;-78
2022/03/24 08:52:10;;;;;;;;;;;;;;;12.60;39.50;101504.59;5035341;28;20034;-79
2022/03/24 08:54:36;;;;;;;25.17;10.75;;;;;;;12.75;42.15;101507.25;5034472;28;19928;-76
2022/03/24 08:57:02;;;;;;;29.35;12.02;;;;;;;12.95;38.76;101504.72;5034901;28;20547;-76
2022/03/24 08:59:27;;;;;;;22.63;10.95;;;;;;;12.95;38.51;101502.03;5034875;28;20042;-76
2022/03/24 09:01:53;;;;;;;22.92;11.57;;;;;;;13.00;38.34;101499.56;5034760;28;20038;-77
2022/03/24 09:04:20;;;;;;;28.60;11.20;;;;;;;13.05;38.29;101508.81;5034725;28;20037;-78
2022/03/24 09:06:46;;;;;;;26.70;11.65;;;;;;;13.11;37.79;101507.16;5034890;28;20050;-77
2022/03/24 09:09:11;;;;;;;;;;;;;;;13.14;38.56;101506.78;5035458;28;20025;-77
2022/03/24 09:11:37;;;;;;;24.45;11.40;;;;;;;13.13;36.76;101507.81;5035235;28;20010;-78
2022/03/24 09:14:02;;;;;;;25.47;11.27;;;;;;;13.06;37.15;101505.06;5035212;28;20033;-77
2022/03/24 09:16:28;;;;;;;29.40;11.23;;;;;;;13.42;36.32;101518.50;5035703;28;20256;-77
2022/03/24 09:18:53;;;;;;;26.45;11.63;;;;;;;13.36;36.98;101510.31;5034498;28;20264;-77
2022/03/24 09:21:19;;;;;;;28.27;11.30;;;;;;;13.53;36.87;101515.25;5017350;28;20448;-78
2022/03/24 09:23:44;;;;;;;39.72;12.25;;;;;;;13.52;36.77;101512.72;5034796;28;20025;-78
2022/03/24 09:26:12;;;;;;;23.52;10.60;;;;;;;13.81;37.00;101517.06;5034692;28;20475;-77
2022/03/24 09:28:37;;;;;;;25.75;11.30;;;;;;;13.84;36.26;101522.09;5032922;28;20037;-76
2022/03/24 09:31:02;;;;;;;25.07;10.20;;;;;;;14.08;36.40;101516.19;5034034;28;20443;-77
2022/03/24 09:33:28;;;;;;;21.17;9.70;;;;;;;14.13;36.15;101513.72;5016625;28;20296;-77
2022/03/24 09:35:53;;;;;;;24.23;10.20;;;;;;;14.09;35.40;101517.03;5032627;28;20295;-77
2022/03/24 09:38:18;;;;;;;19.88;8.82;;;;;;;14.13;35.12;101515.59;5016447;28;20026;-76
2022/03/24 09:40:45;;;;;;;27.17;10.90;;;;;;;14.16;34.67;101513.28;5033673;28;20068;-76
2022/03/24 09:43:13;;;;;;;26.48;10.77;;;;;;;14.25;35.05;101516.69;5033180;28;20027;-77
2022/03/24 09:45:39;;;;;;;27.92;11.18;;;;;;;14.44;34.65;101512.41;5032556;28;20415;-77
2022/03/24 09:48:06;;;;;;;26.35;10.57;;;;;;;14.36;33.40;101513.38;5034231;28;20056;-77
2022/03/24 09:50:34;;;;;;;23.23;10.27;;;;;;;14.25;32.99;101522.94;5034167;28;20384;-77
2022/03/24 09:53:00;;;;;;;26.17;10.60;;;;;;;14.38;33.31;101515.88;5016190;28;20447;-76
2022/03/24 09:55:27;;;;;;;23.02;10.27;;;;;;;14.43;33.59;101521.56;5033380;28;20112;-76
2022/03/24 09:57:52;;;;;;;27.45;11.52;;;;;;;14.49;33.60;101516.19;5033499;28;20092;-76
2022/03/24 10:00:18;;;;;;;29.52;11.88;;;;;;;14.43;33.27;101516.16;5033837;28;20109;-76
2022/03/24 10:03:05;;;;;;;24.00;11.07;;;;;;;14.57;33.56;101515.97;5033394;28;20400;-77
2022/03/24 10:05:31;;;;;;;22.88;9.88;;;;;;;14.62;33.97;101509.13;5033158;28;20443;-78
2022/03/24 10:08:04;;;;;;;25.33;10.87;;;;;;;14.82;33.57;101510.84;5031639;28;20077;-76
2022/03/24 10:10:31;;;;;;;23.42;11.10;;;;;;;14.93;33.95;101517.50;5033294;28;20076;-77
2022/03/24 10:12:56;;;;;;;23.50;10.07;;;;;;;14.98;33.91;101511.47;5033102;28;20108;-76
2022/03/24 10:15:22;;;;;;;25.60;11.60;;;;;;;15.07;32.93;101512.94;5032857;28;20072;-77
2022/03/24 10:17:53;;;;;;;24.60;10.77;;;;;;;15.06;33.09;101513.97;5033091;28;20248;-78
2022/03/24 10:20:19;;;;;;;26.60;11.38;;;;;;;15.14;32.55;101506.47;5033011;28;20030;-78
2022/03/24 10:23:02;;;;;;;27.63;11.40;;;;;;;15.35;32.08;101504.59;5015449;28;20518;-76
2022/03/24 10:25:33;;;;;;;26.90;11.18;;;;;;;15.52;32.16;101503.94;5032601;28;20053;-78
2022/03/24 10:28:05;;;;;;;23.27;10.85;;;;;;;15.58;32.80;101513.19;5016036;28;20036;-76
2022/03/24 10:30:59;;;;;;;21.73;8.93;;;;;;;15.72;32.50;101503.94;5032915;28;20082;-76
2022/03/24 10:33:31;;;;;;;28.13;10.35;;;;;;;15.90;31.89;101504.09;5032824;28;20033;-76
2022/03/24 10:36:19;;;;;;;27.00;11.13;;;;;;;15.97;31.32;101498.63;5015125;28;20582;-76
2022/03/24 10:38:54;;;;;;;25.45;10.63;;;;;;;15.93;31.30;101500.13;5032478;28;20032;-76
2022/03/24 10:41:34;;;;;;;23.48;10.98;;;;;;;15.88;31.01;101498.06;5032632;28;20033;-77
2022/03/24 10:44:05;;;;;;;28.08;11.00;;;;;;;16.08;30.77;101498.00;5032615;28;20025;-76
2022/03/24 10:46:33;;;;;;;28.77;11.75;;;;;;;16.13;30.61;101502.75;5030827;28;20479;-77
2022/03/24 10:49:13;;;;;;;25.08;12.05;;;;;;;16.07;30.56;101493.59;5032808;28;20384;-77
2022/03/24 10:51:43;;;;;;;28.73;12.02;;;;;;;16.08;31.46;101502.59;5031102;28;20037;-77
2022/03/24 10:54:15;;;;;;;25.27;12.20;;;;;;;16.01;30.53;101497.16;5032696;28;20064;-76
2022/03/24 10:57:03;;;;;;;25.50;12.77;;;;;;;16.03;30.72;101489.63;5036479;28;20110;-76
2022/03/24 10:59:33;;;;;;;22.63;9.65;;;;;;;16.30;31.07;101488.44;5036509;28;20025;-76
2022/03/24 11:01:58;;;;;;;21.98;10.68;;;;;;;16.31;30.38;101490.13;5036370;28;20476;-76
2022/03/24 11:04:23;;;;;;;26.10;11.47;;;;;;;16.39;30.99;101489.06;5037020;28;20045;-77
2022/03/24 11:06:52;;;;;;;;;;;;;;;16.45;29.94;101485.47;5037229;28;20052;-77
2022/03/24 11:09:27;;;;;;;23.15;9.85;;;;;;;16.87;29.99;101485.84;5036555;28;19967;-77
2022/03/24 11:12:26;;;;;;;22.25;10.25;;;;;;;17.00;28.91;101483.06;5036651;28;20022;-77
2022/03/24 11:14:54;;;;;;;21.00;11.00;;;;;;;17.05;28.72;101476.91;5035271;28;20034;-77
2022/03/24 11:17:22;;;;;;;23.77;10.80;;;;;;;16.97;28.82;101480.75;5036468;28;20104;-76
2022/03/24 11:19:55;;;;;;;19.75;10.77;;;;;;;17.14;28.42;101481.03;5036385;28;20491;-76
2022/03/24 11:22:21;;;;;;;21.38;9.88;;;;;;;17.23;27.53;101476.97;5036371;28;20379;-77